Time;durP1;ratioP1;P1;durP2;ratioP2;P2;SDS_P1;SDS_P2;PMS_P1;PMS_P2;Temp;Humidity;BMP_temperature;BMP_pressure;BME280_temperature;BME280_humidity;BME280_pressure;Samples;Min_cycle;Max_cycle;Signal;HPM_P1;HPM_P2
2021/12/21 00:02:22;;;;;;;12.30;6.37;;;;;;;-0.78;100.00;100086.75;5096673;28;20202;-88
2021/12/21 00:04:51;;;;;;;13.03;6.13;;;;;;;-0.71;100.00;100073.72;5095854;28;20211;-88
2021/12/21 00:07:19;;;;;;;12.33;6.07;;;;;;;-0.69;100.00;100077.19;5096553;28;20184;-87
2021/12/21 00:09:48;;;;;;;14.93;6.90;;;;;;;-0.79;100.00;100075.47;5097348;28;20203;-88
2021/12/21 00:12:24;;;;;;;11.33;6.03;;;;;;;-0.80;100.00;100068.56;5095804;28;20222;-87
2021/12/21 00:15:02;;;;;;;11.77;6.43;;;;;;;-0.90;100.00;100066.84;5097292;28;20188;-87
2021/12/21 00:17:47;;;;;;;19.60;7.20;;;;;;;-0.84;100.00;100058.19;5094876;28;20199;-86
2021/12/21 00:20:30;;;;;;;14.10;7.33;;;;;;;-0.87;100.00;100054.72;5075023;28;20242;-89
2021/12/21 00:25:46;;;;;;;13.80;6.77;;;;;;;-0.93;100.00;100049.53;5047292;28;20219;-87
2021/12/21 00:28:15;;;;;;;18.50;6.97;;;;;;;-1.16;100.00;100051.31;5078723;28;20193;-88
2021/12/21 00:30:49;;;;;;;14.43;7.13;;;;;;;-1.11;100.00;100057.38;5085698;28;20228;-88
2021/12/21 00:33:17;;;;;;;14.37;7.23;;;;;;;-1.14;100.00;100053.94;5074905;28;20224;-88
2021/12/21 00:35:46;;;;;;;16.37;7.00;;;;;;;-1.33;100.00;100053.97;5070866;28;20200;-88
2021/12/21 00:38:16;;;;;;;14.27;6.77;;;;;;;-1.27;100.00;100058.28;5084744;28;20227;-87
2021/12/21 00:40:44;;;;;;;21.03;8.97;;;;;;;-1.30;100.00;100058.28;5094487;28;20196;-88
2021/12/21 00:43:13;;;;;;;17.83;7.90;;;;;;;-1.30;100.00;100053.94;5095490;28;20198;-88
2021/12/21 00:45:42;;;;;;;13.43;7.50;;;;;;;-1.35;100.00;100049.63;5096449;28;20430;-87
2021/12/21 00:48:14;;;;;;;16.73;8.53;;;;;;;-1.46;100.00;100057.44;5096523;28;20192;-88
2021/12/21 00:50:42;;;;;;;18.87;8.93;;;;;;;-1.49;100.00;100049.66;5097578;27;20215;-88
2021/12/21 00:53:10;;;;;;;14.40;7.10;;;;;;;-1.56;100.00;100048.78;5094496;28;20218;-88
2021/12/21 00:55:38;;;;;;;13.27;7.53;;;;;;;-1.53;100.00;100048.81;5091746;28;20299;-87
2021/12/21 00:58:06;;;;;;;14.37;6.80;;;;;;;-1.37;100.00;100049.63;5087807;28;20200;-88
2021/12/21 01:00:35;;;;;;;16.07;7.43;;;;;;;-1.41;100.00;100050.50;5091185;28;20207;-87
2021/12/21 01:03:08;;;;;;;15.17;7.23;;;;;;;-1.41;100.00;100047.06;5096914;28;20232;-88
2021/12/21 01:05:45;;;;;;;12.13;6.93;;;;;;;-1.35;100.00;100047.91;5093219;28;20198;-88
2021/12/21 01:08:18;;;;;;;13.63;7.03;;;;;;;-1.42;100.00;100046.19;5095924;28;20195;-87
2021/12/21 01:11:01;;;;;;;10.37;6.27;;;;;;;-1.36;100.00;100040.09;5095622;28;20214;-87
2021/12/21 01:16:29;;;;;;;11.27;5.93;;;;;;;-1.36;100.00;100042.69;5073629;28;20279;-86
2021/12/21 01:21:59;;;;;;;11.20;5.33;;;;;;;-1.35;100.00;100042.72;5072602;28;20207;-87
2021/12/21 01:27:23;;;;;;;11.43;5.80;;;;;;;-1.60;100.00;100041.88;5061024;28;20665;-87
2021/12/21 01:30:03;;;;;;;11.30;6.60;;;;;;;-1.68;100.00;100042.75;5070058;28;20295;-87
2021/12/21 01:32:47;;;;;;;11.30;6.50;;;;;;;-1.64;100.00;100045.34;5088327;28;20216;-87
2021/12/21 01:35:23;;;;;;;12.40;6.43;;;;;;;-1.68;100.00;100043.59;5092333;28;20199;-87
2021/12/21 01:37:59;;;;;;;15.27;6.87;;;;;;;-1.64;100.00;100054.84;5094995;28;20259;-87
2021/12/21 01:40:37;;;;;;;10.67;6.20;;;;;;;-1.66;100.00;100052.25;5095992;28;20202;-87
2021/12/21 01:51:24;;;;;;;10.63;5.63;;;;;;;-1.51;100.00;100035.81;5091935;28;20276;-87
2021/12/21 01:53:55;;;;;;;12.27;6.10;;;;;;;-1.51;100.00;100036.66;5095118;28;20215;-88
2021/12/21 01:56:24;;;;;;;15.13;7.00;;;;;;;-1.45;100.00;100034.06;5093155;28;20375;-88
2021/12/21 01:58:53;;;;;;;16.17;5.87;;;;;;;-1.36;100.00;100037.50;5091757;28;20207;-88
2021/12/21 02:01:23;;;;;;;13.13;5.57;;;;;;;-1.32;100.00;100034.03;5094317;28;20274;-88
2021/12/21 02:03:51;;;;;;;14.17;6.37;;;;;;;-1.26;100.00;100031.41;5095134;28;20196;-87
2021/12/21 02:06:23;;;;;;;13.57;6.17;;;;;;;-1.34;100.00;100028.84;5093548;28;20195;-87
2021/12/21 02:08:53;;;;;;;11.10;5.73;;;;;;;-1.38;100.00;100032.31;5094846;28;20203;-87
2021/12/21 02:11:25;;;;;;;12.73;6.20;;;;;;;-1.34;100.00;100022.81;5094851;28;20188;-85
2021/12/21 02:13:53;;;;;;;16.67;6.80;;;;;;;-1.37;100.00;100015.00;5052405;28;20228;-88
2021/12/21 02:16:34;;;;;;;13.70;5.47;;;;;;;-1.34;100.00;100012.41;5048547;28;20201;-88
2021/12/21 02:19:07;;;;;;;9.67;5.37;;;;;;;-1.34;100.00;100015.88;5052627;28;20201;-87
2021/12/21 02:21:43;;;;;;;12.10;6.70;;;;;;;-1.33;100.00;100011.53;5050812;28;20208;-87
2021/12/21 02:24:18;;;;;;;10.10;5.30;;;;;;;-1.43;100.00;100015.03;5049193;28;20238;-86
2021/12/21 02:26:51;;;;;;;13.00;5.93;;;;;;;-1.44;100.00;100014.16;5048657;28;20205;-87
2021/12/21 02:29:25;;;;;;;10.13;5.33;;;;;;;-1.82;100.00;100019.38;5052937;28;20201;-87
2021/12/21 02:31:54;;;;;;;10.37;5.67;;;;;;;-1.71;100.00;100016.78;5071376;28;20275;-87
2021/12/21 02:34:24;;;;;;;12.83;6.07;;;;;;;-1.66;100.00;100012.44;5088260;28;20219;-87
2021/12/21 02:36:56;;;;;;;11.90;6.67;;;;;;;-1.56;100.00;100017.59;5096840;28;20229;-87
2021/12/21 02:39:26;;;;;;;15.77;6.37;;;;;;;-1.42;100.00;100024.53;5073344;28;20223;-87
2021/12/21 02:41:54;;;;;;;13.47;5.97;;;;;;;-1.46;100.00;100021.06;5099097;28;20196;-88
2021/12/21 02:44:23;;;;;;;13.90;6.43;;;;;;;-1.50;100.00;100021.94;5094377;28;20198;-88
2021/12/21 02:46:52;;;;;;;14.40;6.30;;;;;;;-1.35;100.00;100015.84;5090736;28;20204;-88
2021/12/21 02:49:20;;;;;;;13.47;6.00;;;;;;;-1.33;100.00;100015.00;5094560;28;20203;-87
2021/12/21 02:51:48;;;;;;;10.50;6.37;;;;;;;-1.35;100.00;100015.84;5090582;28;20191;-87
2021/12/21 02:54:20;;;;;;;11.20;6.07;;;;;;;-1.42;100.00;100008.94;5094552;28;20223;-86
2021/12/21 02:56:49;;;;;;;10.37;5.50;;;;;;;-1.38;100.00;100008.94;5094363;28;20199;-86
2021/12/21 02:59:17;;;;;;;16.93;6.00;;;;;;;-1.38;100.00;100002.88;5094319;28;20217;-87
2021/12/21 03:01:45;;;;;;;11.87;5.50;;;;;;;-1.42;100.00;100006.34;5093244;28;20211;-87
2021/12/21 03:04:13;;;;;;;12.93;5.60;;;;;;;-1.55;100.00;99995.09;5092032;28;20196;-87
2021/12/21 03:12:33;;;;;;;13.13;6.43;;;;;;;-1.74;100.00;99996.84;5092012;28;20218;-87
2021/12/21 03:15:02;;;;;;;11.73;5.73;;;;;;;-1.83;100.00;100002.09;5093654;28;20219;-88
2021/12/21 03:17:30;;;;;;;11.57;5.57;;;;;;;-1.90;100.00;99995.16;5095605;28;20191;-87
2021/12/21 03:19:58;;;;;;;10.97;5.37;;;;;;;-1.95;100.00;99997.72;5093696;28;20202;-87
2021/12/21 03:22:29;;;;;;;11.23;5.87;;;;;;;-1.94;100.00;99990.81;5092657;28;20200;-87
2021/12/21 03:24:59;;;;;;;13.90;6.10;;;;;;;-2.16;100.00;99992.53;5094296;28;20630;-86
2021/12/21 03:27:28;;;;;;;13.53;6.47;;;;;;;-2.07;100.00;99997.72;5094182;28;20191;-88
2021/12/21 03:29:56;;;;;;;14.30;5.70;;;;;;;-2.07;100.00;100003.78;5088393;28;20199;-86
2021/12/21 03:32:24;;;;;;;15.20;6.40;;;;;;;-1.98;100.00;100000.34;5104914;28;20202;-87
2021/12/21 03:34:52;;;;;;;13.47;6.57;;;;;;;-2.04;100.00;99996.00;5090511;28;20218;-87
2021/12/21 03:37:20;;;;;;;11.50;6.77;;;;;;;-1.99;100.00;99990.81;5092432;28;20664;-86
2021/12/21 03:39:50;;;;;;;12.73;6.10;;;;;;;-1.84;100.00;99995.13;5093326;28;20272;-87
2021/12/21 03:42:20;;;;;;;13.97;6.13;;;;;;;-1.89;100.00;99994.28;5092260;28;20183;-86
2021/12/21 03:44:54;;;;;;;12.40;6.07;;;;;;;-1.95;100.00;99989.09;5088040;28;20192;-86
2021/12/21 03:47:23;;;;;;;12.47;6.30;;;;;;;-1.96;100.00;99987.34;5092955;28;20195;-87
2021/12/21 03:49:56;;;;;;;14.97;7.17;;;;;;;-1.88;100.00;99985.63;5089747;28;20245;-87
2021/12/21 03:52:27;;;;;;;14.87;6.60;;;;;;;-1.87;100.00;99988.22;5091096;28;20195;-87
2021/12/21 03:54:58;;;;;;;13.20;6.53;;;;;;;-1.96;100.00;99989.94;5092160;28;20223;-86
2021/12/21 03:57:28;;;;;;;13.27;6.90;;;;;;;-1.87;100.00;99995.13;5087537;28;20199;-87
2021/12/21 03:59:58;;;;;;;11.63;6.17;;;;;;;-1.91;100.00;99996.88;5088691;28;20216;-87
2021/12/21 04:02:28;;;;;;;13.17;6.60;;;;;;;-1.96;100.00;99998.59;5093638;28;20188;-87
2021/12/21 04:04:59;;;;;;;12.67;6.47;;;;;;;-2.00;100.00;99988.22;5090465;28;20192;-87
2021/12/21 04:07:29;;;;;;;14.83;6.87;;;;;;;-1.89;100.00;99987.34;5095018;28;20195;-87
2021/12/21 04:09:58;;;;;;;14.20;7.30;;;;;;;-1.88;100.00;99990.81;5087449;28;20199;-87
2021/12/21 04:12:28;;;;;;;11.40;6.53;;;;;;;-1.82;100.00;99986.50;5091584;28;20202;-87
2021/12/21 04:14:57;;;;;;;14.97;7.17;;;;;;;-1.79;100.00;99980.44;5092302;28;20215;-87
2021/12/21 04:17:26;;;;;;;12.73;6.97;;;;;;;-1.88;100.00;99978.69;5085071;28;20196;-87
2021/12/21 04:19:54;;;;;;;14.33;7.53;;;;;;;-1.81;100.00;99983.03;5085936;28;20184;-87
2021/12/21 04:22:22;;;;;;;18.90;7.53;;;;;;;-1.79;100.00;99983.88;5095081;28;20807;-87
2021/12/21 04:24:51;;;;;;;9.63;5.93;;;;;;;-1.84;100.00;99977.81;5092186;28;20720;-87
2021/12/21 04:27:19;;;;;;;13.83;6.80;;;;;;;-1.78;100.00;99983.03;5096386;28;20218;-87
2021/12/21 04:29:49;;;;;;;15.20;6.97;;;;;;;-1.77;100.00;99986.47;5097212;28;20201;-87
2021/12/21 04:32:20;;;;;;;10.60;6.33;;;;;;;-1.95;100.00;99973.50;5092216;28;20196;-88
2021/12/21 04:34:49;;;;;;;14.07;6.87;;;;;;;-2.08;100.00;99970.91;5097087;28;20228;-87
2021/12/21 04:37:19;;;;;;;11.70;6.30;;;;;;;-2.08;100.00;99972.66;5094198;28;20219;-87
2021/12/21 04:39:54;;;;;;;9.47;6.00;;;;;;;-1.97;100.00;99978.69;5098896;27;20314;-86
2021/12/21 04:42:23;;;;;;;11.33;5.80;;;;;;;-2.05;100.00;99973.50;5074875;28;20222;-87
2021/12/21 04:44:52;;;;;;;13.93;6.40;;;;;;;-2.22;100.00;99975.25;5099787;27;20199;-87
2021/12/21 04:47:22;;;;;;;10.57;6.37;;;;;;;-2.28;100.00;99979.56;5092496;28;20200;-87
2021/12/21 04:49:52;;;;;;;9.57;6.23;;;;;;;-2.28;100.00;99982.16;5090054;28;20199;-85
2021/12/21 04:52:20;;;;;;;9.17;6.17;;;;;;;-2.31;100.00;99983.03;5089757;28;20188;-87
2021/12/21 04:54:54;;;;;;;13.67;6.83;;;;;;;-2.36;100.00;99983.00;5096216;28;20220;-86
2021/12/21 04:57:23;;;;;;;9.80;6.03;;;;;;;-2.32;100.00;99979.56;5096453;28;20223;-87
2021/12/21 05:00:00;;;;;;;11.17;6.50;;;;;;;-2.38;100.00;99979.56;5090926;28;20196;-87
2021/12/21 05:02:28;;;;;;;11.27;6.07;;;;;;;-2.36;100.00;99982.13;5096414;28;20184;-85
2021/12/21 05:04:56;;;;;;;11.90;6.03;;;;;;;-2.37;100.00;99983.00;5089866;28;20198;-86
2021/12/21 05:07:27;;;;;;;11.40;6.47;;;;;;;-2.50;100.00;99969.16;5089651;28;20194;-87
2021/12/21 05:09:58;;;;;;;10.70;5.90;;;;;;;-2.46;100.00;99972.63;5095978;28;20199;-87
2021/12/21 05:12:26;;;;;;;14.20;6.77;;;;;;;-2.49;100.00;99972.63;5090328;28;20274;-87
2021/12/21 05:14:57;;;;;;;9.80;5.93;;;;;;;-2.45;100.00;99967.44;5092431;28;20215;-86
2021/12/21 05:17:25;;;;;;;10.77;6.33;;;;;;;-2.57;100.00;99974.34;5096030;28;20195;-86
2021/12/21 05:19:55;;;;;;;16.33;6.33;;;;;;;-2.52;100.00;99970.00;5086501;28;20204;-87
2021/12/21 05:22:26;;;;;;;11.67;6.20;;;;;;;-2.52;100.00;99970.88;5094916;28;20207;-87
2021/12/21 05:24:54;;;;;;;9.87;6.07;;;;;;;-2.42;100.00;99976.94;5093174;28;20198;-87
2021/12/21 05:27:23;;;;;;;13.83;6.90;;;;;;;-2.39;100.00;99974.38;5093343;28;20188;-86
2021/12/21 05:29:51;;;;;;;12.47;6.40;;;;;;;-2.41;100.00;99976.09;5062240;28;20188;-86
2021/12/21 05:32:24;;;;;;;11.70;6.33;;;;;;;-2.39;100.00;99979.56;5012873;28;20203;-87
2021/12/21 05:34:53;;;;;;;13.00;7.07;;;;;;;-2.48;100.00;99985.59;5010148;28;20384;-86
2021/12/21 05:37:21;;;;;;;13.47;6.63;;;;;;;-2.50;100.00;99986.47;5011174;28;20221;-86
2021/12/21 05:39:57;;;;;;;12.60;6.70;;;;;;;-2.48;100.00;99987.31;5008753;28;20241;-86
2021/12/21 05:42:25;;;;;;;11.27;6.33;;;;;;;-2.48;100.00;99985.59;5007189;28;20202;-86
2021/12/21 05:44:53;;;;;;;11.80;6.50;;;;;;;-2.47;100.00;99989.91;5008616;28;20709;-87
2021/12/21 05:47:23;;;;;;;14.60;7.50;;;;;;;-2.66;100.00;99986.41;5008480;28;20186;-86
2021/12/21 05:49:52;;;;;;;12.73;6.77;;;;;;;-2.75;100.00;99985.53;5031885;28;20278;-86
2021/12/21 05:52:20;;;;;;;13.80;6.60;;;;;;;-2.82;100.00;99986.34;5093414;28;20643;-86
2021/12/21 05:54:49;;;;;;;11.33;7.07;;;;;;;-2.75;100.00;99980.34;5094821;28;20693;-86
2021/12/21 05:57:18;;;;;;;15.00;6.90;;;;;;;-2.72;100.00;99988.97;5094688;28;20223;-85
2021/12/21 05:59:46;;;;;;;11.77;6.93;;;;;;;-2.85;100.00;99991.53;5088371;28;20211;-87
2021/12/21 06:02:16;;;;;;;13.93;6.77;;;;;;;-2.84;100.00;99995.84;5089589;28;20200;-86
2021/12/21 06:04:46;;;;;;;9.53;6.30;;;;;;;-2.96;100.00;99991.50;5088825;28;20658;-87
2021/12/21 06:07:15;;;;;;;12.87;6.67;;;;;;;-2.93;100.00;99994.09;5095605;27;20638;-87
2021/12/21 06:09:46;;;;;;;11.50;6.53;;;;;;;-2.92;100.00;100003.59;5092066;28;20191;-87
2021/12/21 06:12:21;;;;;;;11.53;6.47;;;;;;;-2.76;100.00;99987.25;5093338;28;20196;-86
2021/12/21 06:15:15;;;;;;;12.03;6.70;;;;;;;-2.77;100.00;99990.72;5094820;28;20187;-85
2021/12/21 06:23:43;;;;;;;12.67;7.43;;;;;;;-2.85;100.00;99997.59;5094373;28;20196;-86
2021/12/21 06:26:13;;;;;;;10.80;6.63;;;;;;;-2.84;100.00;99990.66;5091699;28;20196;-86
2021/12/21 06:28:42;;;;;;;13.17;7.43;;;;;;;-2.84;100.00;99995.84;5100113;28;20192;-86
2021/12/21 06:31:10;;;;;;;13.77;6.70;;;;;;;-2.81;100.00;99991.53;5094770;28;20195;-87
2021/12/21 06:33:39;;;;;;;15.83;7.30;;;;;;;-2.85;100.00;99994.13;5092468;28;20664;-86
2021/12/21 06:36:12;;;;;;;13.30;7.07;;;;;;;-2.92;100.00;99996.69;5093011;28;20233;-85
2021/12/21 06:38:40;;;;;;;13.60;6.97;;;;;;;-2.81;100.00;100001.03;5093010;28;20713;-86
2021/12/21 06:41:08;;;;;;;13.40;7.33;;;;;;;-2.77;100.00;100000.22;5055376;28;20192;-86
2021/12/21 06:43:37;;;;;;;11.57;6.73;;;;;;;-2.94;100.00;100001.00;5094551;28;20188;-86
2021/12/21 06:46:13;;;;;;;11.97;7.30;;;;;;;-3.09;100.00;100006.09;5091832;28;20191;-86
2021/12/21 06:51:35;;;;;;;13.70;6.67;;;;;;;-3.18;100.00;100004.38;5092659;28;20200;-86
2021/12/21 06:54:04;;;;;;;13.83;7.93;;;;;;;-3.11;100.00;100006.97;5094046;28;20190;-86
2021/12/21 06:56:32;;;;;;;12.50;6.73;;;;;;;-3.16;100.00;99999.19;5092044;28;20215;-86
2021/12/21 06:59:01;;;;;;;11.47;6.53;;;;;;;-3.16;100.00;100006.97;5094167;28;20188;-86
2021/12/21 07:01:29;;;;;;;14.53;7.13;;;;;;;-3.11;100.00;100001.78;5095393;27;20271;-86
2021/12/21 07:03:58;;;;;;;13.57;6.97;;;;;;;-3.04;100.00;99996.66;5092415;28;20188;-86
2021/12/21 07:06:29;;;;;;;12.73;7.23;;;;;;;-2.97;100.00;100002.72;5085302;28;20199;-87
2021/12/21 07:09:03;;;;;;;14.73;7.30;;;;;;;-3.13;100.00;100004.38;5024369;28;20195;-86
2021/12/21 07:11:41;;;;;;;21.83;9.77;;;;;;;-3.05;100.00;100007.88;5093034;28;20187;-87
2021/12/21 07:19:49;;;;;;;17.27;8.97;;;;;;;-3.10;100.00;99999.19;5083908;28;20203;-86
2021/12/21 07:22:20;;;;;;;17.60;9.93;;;;;;;-3.03;100.00;100005.28;5086035;28;20198;-86
2021/12/21 07:24:49;;;;;;;15.23;8.57;;;;;;;-3.08;100.00;100005.28;5097173;28;20204;-86
2021/12/21 07:27:17;;;;;;;17.37;8.80;;;;;;;-3.12;100.00;100007.81;5089344;28;20207;-86
2021/12/21 07:29:45;;;;;;;17.07;9.03;;;;;;;-3.20;100.00;100008.66;5088495;28;20250;-86
2021/12/21 07:32:13;;;;;;;14.07;8.43;;;;;;;-3.20;100.00;100008.66;5091554;28;20199;-87
2021/12/21 07:34:42;;;;;;;15.03;7.93;;;;;;;-3.24;100.00;100003.47;5095396;28;20188;-86
2021/12/21 07:37:11;;;;;;;18.17;9.63;;;;;;;-3.08;100.00;100014.78;5090599;28;20211;-86
2021/12/21 07:39:41;;;;;;;16.87;9.37;;;;;;;-3.04;100.00;100011.31;5093547;28;20230;-86
2021/12/21 07:42:18;;;;;;;20.67;9.70;;;;;;;-2.99;100.00;100009.59;5093821;28;20192;-87
2021/12/21 07:44:46;;;;;;;15.43;8.70;;;;;;;-3.02;100.00;100012.19;5087960;28;20275;-86
2021/12/21 07:47:15;;;;;;;14.67;8.40;;;;;;;-3.04;100.00;100024.28;5089841;28;20268;-85
2021/12/21 07:49:43;;;;;;;14.07;7.53;;;;;;;-3.02;100.00;100014.78;5093410;28;20184;-86
2021/12/21 07:52:14;;;;;;;11.30;6.87;;;;;;;-3.01;100.00;100022.56;5093018;28;20196;-87
2021/12/21 07:54:44;;;;;;;14.00;7.50;;;;;;;-3.02;100.00;100014.78;5094044;28;20188;-86
2021/12/21 07:57:14;;;;;;;17.50;7.70;;;;;;;-3.10;100.00;100016.47;5096391;28;20208;-86
2021/12/21 07:59:47;;;;;;;13.97;7.37;;;;;;;-3.24;100.00;100019.00;5089453;28;20203;-86
2021/12/21 08:02:19;;;;;;;14.93;8.03;;;;;;;-3.16;100.00;100017.31;5091137;28;20206;-86
2021/12/21 08:04:48;;;;;;;19.10;8.30;;;;;;;-3.07;100.00;100019.09;5098797;28;20191;-86
2021/12/21 08:07:22;;;;;;;13.83;7.47;;;;;;;-2.98;100.00;100019.13;5093115;28;20278;-86
2021/12/21 08:09:54;;;;;;;15.90;8.07;;;;;;;-3.03;100.00;100021.69;5009096;28;20201;-86
2021/12/21 08:12:23;;;;;;;13.53;8.13;;;;;;;-3.10;100.00;100026.84;5015235;28;20199;-86
2021/12/21 08:14:53;;;;;;;17.20;9.37;;;;;;;-3.06;100.00;100021.69;5010805;28;20198;-86
2021/12/21 08:17:21;;;;;;;14.97;8.70;;;;;;;-2.94;100.00;100011.38;5011127;28;20218;-86
2021/12/21 08:19:50;;;;;;;16.53;9.20;;;;;;;-2.81;100.00;100014.88;5012821;28;20277;-86
2021/12/21 08:22:18;;;;;;;20.83;10.70;;;;;;;-2.68;100.00;100020.97;5010906;28;20265;-85
2021/12/21 08:24:46;;;;;;;14.40;9.83;;;;;;;-2.61;100.00;100015.81;5007739;28;20190;-86
2021/12/21 08:27:18;;;;;;;16.53;10.03;;;;;;;-2.54;100.00;100013.22;5011909;28;20194;-87
2021/12/21 08:29:46;;;;;;;16.97;9.90;;;;;;;-2.47;100.00;100015.84;5012248;28;20280;-85
2021/12/21 08:32:16;;;;;;;17.40;8.97;;;;;;;-2.35;100.00;100022.78;4992225;28;20199;-86
2021/12/21 08:34:44;;;;;;;13.30;8.20;;;;;;;-2.33;100.00;100018.44;4991442;28;20194;-86
2021/12/21 08:37:13;;;;;;;12.77;7.33;;;;;;;-2.32;100.00;100010.69;4990480;28;20215;-86
2021/12/21 08:39:41;;;;;;;14.10;7.53;;;;;;;-2.12;100.00;100018.50;4991712;28;20226;-85
2021/12/21 08:42:14;;;;;;;12.57;7.10;;;;;;;-1.99;100.00;100018.50;5068418;28;20208;-86
2021/12/21 08:44:47;;;;;;;13.93;7.40;;;;;;;-2.05;100.00;100020.22;5074603;28;20200;-86
2021/12/21 08:47:16;;;;;;;12.07;7.33;;;;;;;-2.04;100.00;100021.09;5066488;28;20219;-86
2021/12/21 08:49:45;;;;;;;13.57;7.13;;;;;;;-1.88;100.00;100009.84;5076573;28;20200;-86
2021/12/21 08:52:13;;;;;;;14.57;7.60;;;;;;;-1.80;100.00;100010.72;5092236;28;20222;-88
2021/12/21 08:54:43;;;;;;;14.97;7.53;;;;;;;-1.58;100.00;100006.38;5095468;28;20204;-85
2021/12/21 08:57:12;;;;;;;11.67;7.47;;;;;;;-1.60;100.00;100017.63;5090593;28;20230;-86
2021/12/21 08:59:40;;;;;;;15.50;6.93;;;;;;;-1.66;100.00;100017.63;5092884;28;20211;-86
2021/12/21 09:02:13;;;;;;;12.70;6.93;;;;;;;-1.50;100.00;100020.22;5091536;28;20196;-86
2021/12/21 09:04:44;;;;;;;13.93;7.73;;;;;;;-1.29;100.00;100026.22;5094741;28;20192;-86
2021/12/21 09:07:12;;;;;;;10.43;6.50;;;;;;;-1.33;100.00;100022.78;5088523;28;20191;-86
2021/12/21 09:09:40;;;;;;;13.10;6.33;;;;;;;-1.09;100.00;100026.19;5096136;28;20199;-87
2021/12/21 09:12:11;;;;;;;13.40;7.10;;;;;;;-0.97;100.00;100031.34;5096750;28;20214;-86
2021/12/21 09:14:40;;;;;;;13.00;7.37;;;;;;;-0.81;100.00;100027.81;5092756;28;20204;-83
2021/12/21 09:17:09;;;;;;;14.23;7.13;;;;;;;-0.56;100.00;100027.72;5098128;27;20224;-87
2021/12/21 09:19:40;;;;;;;12.07;6.90;;;;;;;-0.49;100.00;100025.06;5097230;28;20702;-86
2021/12/21 09:22:09;;;;;;;14.07;7.17;;;;;;;-0.31;100.00;100021.50;5095492;28;20194;-85
2021/12/21 09:24:40;;;;;;;12.33;6.73;;;;;;;-0.21;100.00;100020.56;5102499;28;20199;-85
2021/12/21 09:30:11;;;;;;;13.83;7.17;;;;;;;0.06;100.00;100029.06;5248802;22;20228;-85
2021/12/21 09:32:45;;;;;;;14.80;7.07;;;;;;;0.20;100.00;100033.28;5045489;28;20206;-86
2021/12/21 09:35:15;;;;;;;13.90;7.70;;;;;;;0.23;100.00;100032.41;5032454;28;20186;-84
2021/12/21 09:37:44;;;;;;;12.73;7.87;;;;;;;0.33;100.00;100030.59;5020990;28;20221;-87
2021/12/21 09:40:16;;;;;;;11.57;7.40;;;;;;;0.51;100.00;100033.88;5029775;28;20214;-86
2021/12/21 09:42:45;;;;;;;13.47;7.03;;;;;;;0.74;100.00;100030.19;5029350;28;20194;-86
2021/12/21 09:45:14;;;;;;;12.93;7.47;;;;;;;0.55;100.00;100032.97;5031888;28;20293;-86
2021/12/21 09:47:45;;;;;;;13.57;7.83;;;;;;;0.87;100.00;100029.19;5027364;28;20217;-86
2021/12/21 09:50:18;;;;;;;9.90;6.03;;;;;;;0.79;100.00;100037.09;5029276;28;20198;-85
2021/12/21 09:52:49;;;;;;;11.77;6.87;;;;;;;0.94;100.00;100029.97;5031561;28;20280;-86
2021/12/21 09:55:20;;;;;;;13.93;7.47;;;;;;;0.92;100.00;100032.59;5026121;28;20212;-86
2021/12/21 09:57:50;;;;;;;12.37;6.20;;;;;;;1.04;100.00;100034.22;5054882;28;20243;-86
2021/12/21 10:00:22;;;;;;;13.97;7.03;;;;;;;0.99;100.00;100036.03;5065559;28;20651;-86
2021/12/21 10:02:52;;;;;;;12.17;7.07;;;;;;;1.14;100.00;100028.88;5068568;28;20200;-86
2021/12/21 10:05:24;;;;;;;15.53;7.13;;;;;;;1.44;100.00;100024.16;5069889;28;20212;-85
2021/12/21 10:08:00;;;;;;;13.87;7.33;;;;;;;1.65;100.00;100023.88;5066258;28;20206;-86
2021/12/21 10:10:33;;;;;;;13.20;7.03;;;;;;;1.62;100.00;100020.44;5068376;28;20203;-85
2021/12/21 10:13:14;;;;;;;13.43;7.43;;;;;;;1.62;100.00;100026.50;5070577;28;20188;-84
2021/12/21 10:15:44;;;;;;;13.07;6.30;;;;;;;1.70;100.00;100015.97;5072963;28;20188;-85
2021/12/21 10:18:13;;;;;;;12.70;7.00;;;;;;;1.76;100.00;100017.66;5068228;28;20223;-86
2021/12/21 10:20:46;;;;;;;10.83;6.77;;;;;;;1.93;100.00;100015.63;5033849;28;20199;-85
2021/12/21 10:23:19;;;;;;;13.40;7.27;;;;;;;2.06;100.00;100005.88;5064958;28;20229;-86
2021/12/21 10:25:50;;;;;;;14.30;7.43;;;;;;;2.08;100.00;100001.47;5071478;28;20271;-86
2021/12/21 10:28:30;;;;;;;12.23;6.80;;;;;;;2.19;100.00;99997.78;5063810;28;20204;-85
2021/12/21 10:31:00;;;;;;;10.67;6.77;;;;;;;2.06;100.00;99998.88;5061419;28;20236;-86
2021/12/21 10:33:29;;;;;;;8.17;6.70;;;;;;;2.36;100.00;99997.50;5070424;28;20200;-85
2021/12/21 10:36:01;;;;;;;13.77;7.20;;;;;;;2.42;100.00;99996.56;5065693;28;20199;-86
2021/12/21 10:38:33;;;;;;;10.53;6.63;;;;;;;2.51;100.00;99989.41;5070756;28;20686;-85
2021/12/21 10:41:11;;;;;;;13.20;6.57;;;;;;;2.83;100.00;99993.19;5008889;28;20206;-86
2021/12/21 10:43:40;;;;;;;16.97;7.17;;;;;;;3.04;100.00;99986.66;5005724;28;20190;-85
2021/12/21 10:46:11;;;;;;;14.13;6.90;;;;;;;3.14;100.00;99993.44;5008590;28;20194;-85
2021/12/21 10:48:47;;;;;;;14.67;7.07;;;;;;;3.20;100.00;99989.84;5004115;28;20202;-86
2021/12/21 10:51:20;;;;;;;13.03;6.93;;;;;;;3.36;100.00;99988.59;4919119;29;20204;-86
2021/12/21 10:53:50;;;;;;;12.47;7.33;;;;;;;3.33;100.00;99984.31;4948733;29;20193;-86
2021/12/21 10:56:19;;;;;;;13.03;7.47;;;;;;;3.51;100.00;99976.94;4946800;29;20200;-85
2021/12/21 10:58:48;;;;;;;13.07;7.00;;;;;;;3.79;100.00;99983.28;4967690;28;20229;-85
2021/12/21 11:01:44;;;;;;;11.73;7.13;;;;;;;4.05;100.00;99976.53;5012914;28;20689;-85
2021/12/21 11:04:16;;;;;;;12.93;7.23;;;;;;;4.10;100.00;99964.22;5006042;28;20270;-85
2021/12/21 11:06:49;;;;;;;14.10;7.13;;;;;;;4.43;100.00;99970.34;5008500;28;20202;-84
2021/12/21 11:09:17;;;;;;;11.43;7.10;;;;;;;4.75;100.00;99964.25;5035912;28;20203;-85
2021/12/21 11:11:49;;;;;;;13.57;7.63;;;;;;;4.84;100.00;99959.63;5071054;28;20200;-86
2021/12/21 11:14:19;;;;;;;12.90;7.00;;;;;;;5.18;100.00;99956.88;5070073;28;20198;-86
2021/12/21 11:16:51;;;;;;;11.67;7.00;;;;;;;5.31;100.00;99956.53;5064374;28;20204;-86
2021/12/21 11:19:20;;;;;;;15.47;6.73;;;;;;;5.54;100.00;99950.59;5069545;28;20271;-86
2021/12/21 11:21:55;;;;;;;14.27;7.47;;;;;;;6.03;100.00;99948.16;5070208;28;20195;-87
2021/12/21 11:24:26;;;;;;;15.20;7.17;;;;;;;5.82;100.00;99947.97;5066832;28;20184;-87
2021/12/21 11:27:07;;;;;;;12.13;7.17;;;;;;;5.82;100.00;99938.28;5074327;28;20211;-87
2021/12/21 11:29:39;;;;;;;11.33;6.63;;;;;;;6.18;100.00;99948.56;5071792;28;20235;-87
2021/12/21 11:32:08;;;;;;;11.03;6.87;;;;;;;6.81;100.00;99936.69;5073053;28;20200;-87
2021/12/21 11:34:58;;;;;;;14.00;7.40;;;;;;;6.77;100.00;99925.44;5071051;28;20199;-87
2021/12/21 11:37:30;;;;;;;10.83;6.47;;;;;;;6.95;100.00;99930.91;5073600;28;20207;-86
2021/12/21 11:40:04;;;;;;;11.47;6.53;;;;;;;7.36;100.00;99924.13;5077221;28;20199;-87
2021/12/21 11:42:36;;;;;;;13.77;6.63;;;;;;;7.53;100.00;99928.72;5077379;28;20204;-87
2021/12/21 11:45:11;;;;;;;11.97;6.50;;;;;;;7.54;100.00;99923.41;5071830;28;20193;-87
2021/12/21 11:47:48;;;;;;;9.53;6.40;;;;;;;8.17;100.00;99924.34;5076998;28;20226;-87
2021/12/21 11:50:17;;;;;;;13.83;6.50;;;;;;;8.64;100.00;99918.84;5074732;28;20299;-87
2021/12/21 11:52:50;;;;;;;9.83;6.40;;;;;;;9.09;100.00;99920.38;5072536;28;20241;-86
2021/12/21 11:55:23;;;;;;;13.30;6.57;;;;;;;9.26;100.00;99911.63;5076749;28;20196;-87
2021/12/21 11:57:55;;;;;;;9.63;5.90;;;;;;;9.54;100.00;99914.69;5072659;28;20219;-87
2021/12/21 12:00:26;;;;;;;10.60;6.50;;;;;;;9.84;98.72;99900.91;5074419;28;20188;-87
2021/12/21 12:02:56;;;;;;;23.57;11.60;;;;;;;10.76;96.67;99905.09;5071150;28;20211;-87
2021/12/21 12:05:30;;;;;;;12.63;6.40;;;;;;;10.53;92.11;99906.31;5057339;28;20669;-87
2021/12/21 12:08:03;;;;;;;10.70;6.27;;;;;;;11.16;89.09;99906.47;5072128;28;20196;-87
2021/12/21 12:10:34;;;;;;;9.47;5.70;;;;;;;11.23;86.21;99897.22;5068713;28;20197;-87
2021/12/21 12:13:11;;;;;;;9.40;5.50;;;;;;;11.27;85.19;99903.22;5076578;28;20276;-87
2021/12/21 12:15:48;;;;;;;10.23;6.20;;;;;;;11.43;85.32;99890.81;5054042;28;20193;-87